TimeCDT,TemperatureF,Dew PointF,Humidity,Sea Level PressureIn,VisibilityMPH,Wind Direction,Wind SpeedMPH,Gust SpeedMPH,PrecipitationIn,Events,Conditions,WindDirDegrees,DateUTC
12:53 AM,60.1,46.0,60,30.10,10.0,South,6.9,-,N/A,,Clear,170,2013-06-20 05:53:00
1:53 AM,57.9,46.0,65,30.10,10.0,South,5.8,-,N/A,,Clear,190,2013-06-20 06:53:00
2:53 AM,57.0,46.0,67,30.11,10.0,South,4.6,-,N/A,,Clear,170,2013-06-20 07:53:00
3:53 AM,57.0,46.0,67,30.11,10.0,South,3.5,-,N/A,,Clear,190,2013-06-20 08:53:00
4:53 AM,54.0,46.0,75,30.12,10.0,Calm,Calm,-,N/A,,Clear,0,2013-06-20 09:53:00
5:53 AM,55.9,48.0,75,30.13,10.0,Calm,Calm,-,N/A,,Clear,0,2013-06-20 10:53:00
6:53 AM,60.1,46.9,62,30.12,10.0,South,5.8,-,N/A,,Clear,180,2013-06-20 11:53:00
7:53 AM,64.9,50.0,58,30.13,10.0,South,3.5,-,N/A,,Partly Cloudy,190,2013-06-20 12:53:00
8:53 AM,70.0,54.0,57,30.14,10.0,SW,6.9,-,N/A,,Mostly Cloudy,220,2013-06-20 13:53:00
9:53 AM,73.9,53.1,48,30.13,10.0,South,11.5,-,N/A,,Clear,190,2013-06-20 14:53:00
10:53 AM,77.0,55.9,48,30.14,10.0,South,8.1,-,N/A,,Unknown,180,2013-06-20 15:53:00
11:53 AM,80.1,57.9,47,30.13,10.0,South,11.5,-,N/A,,Clear,180,2013-06-20 16:53:00
12:53 PM,82.9,57.0,41,30.12,10.0,SW,12.7,-,N/A,,Clear,220,2013-06-20 17:53:00
1:53 PM,84.0,57.0,40,30.11,10.0,SW,9.2,-,N/A,,Clear,220,2013-06-20 18:53:00
2:53 PM,84.0,57.9,41,30.10,10.0,SW,11.5,-,N/A,,Clear,220,2013-06-20 19:53:00
3:53 PM,86.0,57.0,37,30.09,10.0,South,11.5,20.7,N/A,,Clear,180,2013-06-20 20:53:00
4:53 PM,84.0,60.1,44,30.07,10.0,SE,12.7,-,N/A,,Clear,140,2013-06-20 21:53:00
5:53 PM,82.9,60.1,46,30.06,10.0,SE,17.3,-,N/A,,Clear,140,2013-06-20 22:53:00
6:53 PM,80.1,59.0,48,30.07,10.0,SSE,12.7,-,N/A,,Mostly Cloudy,150,2013-06-20 23:53:00
7:53 PM,77.0,57.9,52,30.08,10.0,SSE,8.1,-,N/A,,Mostly Cloudy,150,2013-06-21 00:53:00
8:53 PM,73.9,55.9,53,30.08,10.0,SSE,8.1,-,N/A,,Partly Cloudy,150,2013-06-21 01:53:00
9:53 PM,71.1,55.0,57,30.10,10.0,SSE,6.9,-,N/A,,Partly Cloudy,160,2013-06-21 02:53:00
10:53 PM,69.1,54.0,58,30.09,10.0,SSE,6.9,-,N/A,,Clear,160,2013-06-21 03:53:00
11:53 PM,69.1,54.0,58,30.10,10.0,South,5.8,-,N/A,,Clear,180,2013-06-21 04:53:00